createdAt,value
2022-11-20T00:01:25.852Z,19.00
2022-11-20T00:03:55.214Z,20.83
2022-11-20T00:06:23.934Z,15.98
2022-11-20T00:08:51.751Z,13.23
2022-11-20T00:11:21.797Z,15.30
2022-11-20T00:13:51.830Z,24.10
2022-11-20T00:16:22.120Z,14.00
2022-11-20T00:18:49.932Z,16.58
2022-11-20T00:21:24.455Z,27.10
2022-11-20T00:23:55.305Z,23.48
2022-11-20T00:26:25.282Z,17.00
2022-11-20T00:28:56.135Z,15.98
2022-11-20T00:31:24.352Z,12.13
2022-11-20T00:33:52.071Z,11.93
2022-11-20T00:36:24.377Z,13.10
2022-11-20T00:38:56.492Z,18.67
2022-11-20T00:41:25.205Z,21.40
2022-11-20T00:43:54.643Z,10.77
2022-11-20T00:46:27.121Z,15.40
2022-11-20T00:48:54.991Z,13.88
2022-11-20T00:51:24.488Z,11.07
2022-11-20T00:53:52.371Z,13.35
2022-11-20T00:56:20.609Z,12.02
2022-11-20T00:58:49.763Z,19.83
2022-11-20T01:01:25.865Z,24.17
2022-11-20T01:03:55.408Z,18.90
2022-11-20T01:06:26.085Z,17.23
2022-11-20T01:08:55.633Z,13.20
2022-11-20T01:11:28.881Z,10.75
2022-11-20T01:13:57.972Z,18.40
2022-11-20T01:16:31.632Z,28.92
2022-11-20T01:19:01.697Z,17.05
2022-11-20T01:21:33.865Z,21.98
2022-11-20T01:24:02.391Z,15.35
2022-11-20T01:26:32.870Z,18.92
2022-11-20T01:29:02.113Z,11.60
2022-11-20T01:31:32.241Z,15.55
2022-11-20T01:34:03.351Z,16.83
2022-11-20T01:36:32.889Z,25.05
2022-11-20T01:39:02.364Z,16.75
2022-11-20T01:41:50.590Z,20.40
2022-11-20T01:44:21.291Z,16.10
2022-11-20T01:47:01.999Z,15.48
2022-11-20T01:49:48.802Z,20.73
2022-11-20T01:52:24.124Z,22.60
2022-11-20T01:55:04.725Z,19.25
2022-11-20T01:57:35.474Z,24.08
2022-11-20T02:00:08.070Z,27.05
2022-11-20T02:02:56.527Z,25.92
2022-11-20T02:05:30.188Z,18.40
2022-11-20T02:07:58.988Z,25.30
2022-11-20T02:10:28.122Z,19.48
2022-11-20T02:13:14.354Z,23.00
2022-11-20T02:15:42.131Z,17.52
2022-11-20T02:18:12.303Z,22.08
2022-11-20T02:20:47.107Z,22.02
2022-11-20T02:23:31.024Z,22.15
2022-11-20T02:25:59.923Z,25.52
2022-11-20T02:28:27.366Z,22.27
2022-11-20T02:30:54.875Z,14.32
2022-11-20T02:33:22.309Z,12.10
2022-11-20T02:35:49.898Z,13.50
2022-11-20T02:38:17.429Z,20.52
2022-11-20T02:40:44.967Z,16.25
2022-11-20T02:43:12.818Z,17.17
2022-11-20T02:45:40.364Z,14.82
2022-11-20T02:48:08.768Z,9.65
2022-11-20T02:50:40.104Z,17.70
2022-11-20T02:53:08.113Z,15.73
2022-11-20T02:55:36.156Z,10.38
2022-11-20T02:58:03.862Z,18.50
2022-11-20T03:00:31.664Z,14.45
2022-11-20T03:02:59.149Z,16.85
2022-11-20T03:05:26.606Z,15.07
2022-11-20T03:07:54.167Z,19.73
2022-11-20T03:10:21.614Z,13.05
2022-11-20T03:12:53.294Z,18.77
2022-11-20T03:15:20.784Z,15.45
2022-11-20T03:17:48.189Z,17.40
2022-11-20T03:20:15.787Z,13.48
2022-11-20T03:22:43.176Z,20.33
2022-11-20T03:25:10.661Z,16.25
2022-11-20T03:27:38.157Z,18.60
2022-11-20T03:30:06.569Z,20.13
2022-11-20T03:32:33.995Z,15.45
2022-11-20T03:35:01.427Z,16.38
2022-11-20T03:37:28.854Z,24.38
2022-11-20T03:39:56.285Z,19.90
2022-11-20T03:42:42.250Z,16.50
2022-11-20T03:45:09.998Z,11.93
2022-11-20T03:47:37.423Z,17.10
2022-11-20T03:50:05.340Z,15.68
2022-11-20T03:52:32.729Z,18.48
2022-11-20T03:55:00.238Z,9.32
2022-11-20T03:57:27.674Z,4.68
2022-11-20T03:59:55.117Z,7.68
2022-11-20T04:02:22.510Z,8.05
2022-11-20T04:04:50.084Z,10.30
2022-11-20T04:07:17.596Z,10.52
2022-11-20T04:09:45.187Z,8.57
2022-11-20T04:12:12.617Z,6.47
2022-11-20T04:14:40.050Z,9.80
2022-11-20T04:17:07.547Z,15.63
2022-11-20T04:19:35.014Z,6.82
2022-11-20T04:22:02.661Z,8.23
2022-11-20T04:24:30.141Z,9.40
2022-11-20T04:26:57.642Z,6.60
2022-11-20T04:29:25.112Z,8.02
2022-11-20T04:31:52.608Z,11.13
2022-11-20T04:34:20.107Z,7.55
2022-11-20T04:36:47.499Z,12.02
2022-11-20T04:39:19.183Z,13.32
2022-11-20T04:41:46.941Z,9.48
2022-11-20T04:44:14.367Z,7.38
2022-11-20T04:46:43.054Z,6.65
2022-11-20T04:49:11.943Z,8.05
2022-11-20T04:51:39.434Z,12.05
2022-11-20T04:54:06.887Z,11.40
2022-11-20T04:56:34.478Z,9.20
2022-11-20T04:59:03.328Z,12.32
2022-11-20T05:01:31.274Z,7.68
2022-11-20T05:03:58.732Z,10.15
2022-11-20T05:06:26.451Z,11.68
2022-11-20T05:08:53.879Z,8.52
2022-11-20T05:11:22.593Z,9.13
2022-11-20T05:13:51.225Z,9.38
2022-11-20T05:16:21.604Z,6.20
2022-11-20T05:18:50.317Z,12.50
2022-11-20T05:21:18.250Z,7.60
2022-11-20T05:23:47.189Z,11.02
2022-11-20T05:26:24.167Z,7.57
2022-11-20T05:28:52.591Z,3.70
2022-11-20T05:31:27.667Z,7.30
2022-11-20T05:33:56.303Z,9.43
2022-11-20T05:36:23.898Z,6.05
2022-11-20T05:38:52.901Z,6.65
2022-11-20T05:41:22.466Z,7.47
2022-11-20T05:43:50.931Z,11.45
2022-11-20T05:46:26.467Z,10.77
2022-11-20T05:48:56.619Z,4.63
2022-11-20T05:51:24.672Z,7.40
2022-11-20T05:53:52.130Z,9.32
2022-11-20T05:56:21.434Z,6.82
2022-11-20T05:58:49.751Z,9.13
2022-11-20T06:01:23.535Z,7.70
2022-11-20T06:03:51.640Z,9.93
2022-11-20T06:06:20.532Z,7.18
2022-11-20T06:08:49.098Z,11.13
2022-11-20T06:11:17.851Z,11.85
2022-11-20T06:13:46.472Z,12.35
2022-11-20T06:16:16.733Z,9.25
2022-11-20T06:18:44.203Z,6.97
2022-11-20T06:21:14.892Z,7.93
2022-11-20T06:23:43.182Z,15.95
2022-11-20T06:26:12.905Z,9.35
2022-11-20T06:28:40.729Z,8.60
2022-11-20T06:31:10.832Z,8.75
2022-11-20T06:33:38.338Z,8.85
2022-11-20T06:36:10.596Z,7.45
2022-11-20T06:38:39.134Z,7.32
2022-11-20T06:41:08.713Z,8.73
2022-11-20T06:43:36.214Z,6.68
2022-11-20T06:46:03.852Z,10.45
2022-11-20T06:48:31.460Z,8.07
2022-11-20T06:50:59.506Z,10.98
2022-11-20T06:53:27.063Z,10.10
2022-11-20T06:55:58.788Z,7.80
2022-11-20T06:58:29.125Z,12.45
2022-11-20T07:01:00.681Z,12.90
2022-11-20T07:03:28.270Z,6.43
2022-11-20T07:05:57.285Z,10.95
2022-11-20T07:08:25.692Z,11.35
2022-11-20T07:10:53.497Z,8.30
2022-11-20T07:13:20.997Z,13.50
2022-11-20T07:15:48.389Z,7.93
2022-11-20T07:18:15.821Z,10.40
2022-11-20T07:20:43.392Z,9.20
2022-11-20T07:23:10.832Z,12.20
2022-11-20T07:25:38.198Z,13.25
2022-11-20T07:28:05.823Z,10.63
2022-11-20T07:30:33.258Z,9.80
2022-11-20T07:33:00.917Z,11.43
2022-11-20T07:35:28.442Z,8.93
2022-11-20T07:37:55.898Z,12.90
2022-11-20T07:40:23.359Z,13.15
2022-11-20T07:42:52.555Z,6.10
2022-11-20T07:45:21.261Z,8.43
2022-11-20T07:47:49.207Z,14.15
2022-11-20T07:50:17.526Z,5.20
2022-11-20T07:52:45.138Z,8.02
2022-11-20T07:55:12.712Z,10.48
2022-11-20T07:57:40.370Z,14.18
2022-11-20T08:00:10.381Z,9.18
2022-11-20T08:02:41.792Z,9.38
2022-11-20T08:05:12.277Z,7.78
2022-11-20T08:07:41.619Z,10.48
2022-11-20T08:10:11.370Z,10.07
2022-11-20T08:13:04.729Z,6.53
2022-11-20T08:15:32.912Z,11.93
2022-11-20T08:18:29.894Z,8.25
2022-11-20T08:20:56.630Z,11.80
2022-11-20T08:23:24.421Z,9.45
2022-11-20T08:25:52.315Z,7.10
2022-11-20T08:28:22.240Z,7.15
2022-11-20T08:30:51.318Z,5.10
2022-11-20T08:33:19.573Z,5.88
2022-11-20T08:35:47.250Z,10.15
2022-11-20T08:38:14.742Z,4.35
2022-11-20T08:40:42.164Z,6.32
2022-11-20T08:43:09.556Z,5.85
2022-11-20T08:45:37.008Z,8.43
2022-11-20T08:48:04.795Z,4.03
2022-11-20T08:50:34.010Z,5.82
2022-11-20T08:53:05.788Z,7.32
2022-11-20T08:55:33.722Z,6.28
2022-11-20T08:58:05.382Z,10.43
2022-11-20T09:00:33.948Z,9.43
2022-11-20T09:03:02.263Z,9.02
2022-11-20T09:05:30.078Z,5.78
2022-11-20T09:07:58.351Z,6.30
2022-11-20T09:10:26.372Z,12.07
2022-11-20T09:12:56.098Z,6.32
2022-11-20T09:15:25.131Z,3.97
2022-11-20T09:17:57.763Z,4.57
2022-11-20T09:20:26.495Z,3.92
2022-11-20T09:22:53.905Z,7.10
2022-11-20T09:25:21.723Z,28.48
2022-11-20T09:27:49.112Z,3.83
2022-11-20T09:30:17.159Z,8.88
2022-11-20T09:32:44.603Z,8.73
2022-11-20T09:35:12.840Z,6.50
2022-11-20T09:37:40.269Z,6.28
2022-11-20T09:40:17.765Z,9.07
2022-11-20T09:43:20.097Z,6.95
2022-11-20T09:46:06.182Z,15.00
2022-11-20T09:48:53.133Z,5.60
2022-11-20T09:51:27.182Z,5.75
2022-11-20T09:54:13.038Z,8.57
2022-11-20T09:56:43.649Z,7.95
2022-11-20T09:59:36.338Z,7.20
2022-11-20T10:02:28.367Z,6.78
2022-11-20T10:05:01.483Z,5.07
2022-11-20T10:08:00.674Z,11.32
2022-11-20T10:10:41.008Z,8.50
2022-11-20T10:13:19.540Z,6.57
2022-11-20T10:18:45.880Z,3.40
2022-11-20T10:21:34.696Z,9.90
2022-11-20T10:24:02.139Z,8.88
2022-11-20T10:27:00.075Z,3.03
2022-11-20T10:29:39.243Z,7.32
2022-11-20T10:32:19.521Z,4.28
2022-11-20T10:35:00.729Z,6.95
2022-11-20T10:37:30.374Z,7.43
2022-11-20T10:40:20.731Z,3.80
2022-11-20T10:42:57.096Z,3.33
2022-11-20T10:45:33.859Z,9.63
2022-11-20T10:48:28.268Z,5.55
2022-11-20T10:51:11.899Z,2.35
2022-11-20T10:53:51.549Z,6.80
2022-11-20T10:56:24.265Z,3.67
2022-11-20T10:59:29.107Z,3.20
2022-11-20T11:01:56.663Z,1.52
2022-11-20T11:04:36.003Z,6.43
2022-11-20T11:07:21.593Z,6.25
2022-11-20T11:09:53.033Z,4.10
2022-11-20T11:12:30.302Z,6.82
2022-11-20T11:14:58.789Z,4.43
2022-11-20T11:17:34.376Z,4.03
2022-11-20T11:20:02.976Z,4.78
2022-11-20T11:22:34.055Z,7.20
2022-11-20T11:25:02.099Z,5.45
2022-11-20T11:27:29.625Z,7.80
2022-11-20T11:30:24.244Z,3.95
2022-11-20T11:32:51.873Z,6.85
2022-11-20T11:35:28.351Z,4.38
2022-11-20T11:38:08.380Z,8.68
2022-11-20T11:40:38.627Z,7.63
2022-11-20T11:43:38.089Z,3.00
2022-11-20T11:46:30.388Z,5.45
2022-11-20T11:49:09.756Z,4.43
2022-11-20T11:51:51.061Z,3.65
2022-11-20T11:54:25.215Z,4.07
2022-11-20T11:56:53.940Z,3.00
2022-11-20T11:59:30.074Z,4.90
2022-11-20T12:02:05.110Z,4.47
2022-11-20T12:04:45.625Z,4.00
2022-11-20T12:07:47.753Z,3.95
2022-11-20T12:10:27.746Z,3.13
2022-11-20T12:13:02.080Z,4.10
2022-11-20T12:15:35.190Z,4.10
2022-11-20T12:18:03.430Z,4.15
2022-11-20T12:20:37.953Z,2.95
2022-11-20T12:23:22.250Z,4.95
2022-11-20T12:25:56.095Z,8.32
2022-11-20T12:28:53.822Z,6.82
2022-11-20T12:31:33.415Z,8.07
2022-11-20T12:34:00.819Z,3.80
2022-11-20T12:36:45.898Z,6.47
2022-11-20T12:39:41.281Z,4.45
2022-11-20T12:42:58.102Z,2.47
2022-11-20T12:45:43.305Z,2.67
2022-11-20T12:48:16.614Z,3.35
2022-11-20T12:51:14.034Z,3.30
2022-11-20T12:54:31.039Z,1.88
2022-11-20T12:57:28.651Z,2.65
2022-11-20T13:00:09.171Z,3.20
2022-11-20T13:02:58.284Z,3.72
2022-11-20T13:05:51.887Z,3.85
2022-11-20T13:08:36.244Z,2.13
2022-11-20T13:11:27.880Z,2.97
2022-11-20T13:14:35.662Z,3.00
2022-11-20T13:17:14.616Z,3.00
2022-11-20T13:19:42.483Z,2.90
2022-11-20T13:22:10.585Z,3.10
2022-11-20T13:24:38.112Z,3.08
2022-11-20T13:27:05.452Z,3.13
2022-11-20T13:29:35.325Z,3.78
2022-11-20T13:32:18.778Z,3.28
2022-11-20T13:35:12.320Z,2.80
2022-11-20T13:37:41.442Z,4.93
2022-11-20T13:40:08.884Z,2.05
2022-11-20T13:43:05.600Z,3.22
2022-11-20T13:45:33.997Z,1.33
2022-11-20T13:48:18.072Z,2.03
2022-11-20T13:51:12.480Z,2.53
2022-11-20T13:53:48.920Z,5.35
2022-11-20T13:56:25.199Z,3.22
2022-11-20T13:59:25.954Z,2.38
2022-11-20T14:01:54.666Z,3.75
2022-11-20T14:04:34.194Z,3.80
2022-11-20T14:07:02.101Z,2.72
2022-11-20T14:09:32.984Z,3.30
2022-11-20T14:12:00.993Z,4.82
2022-11-20T14:14:30.507Z,2.38
2022-11-20T14:17:18.384Z,2.83
2022-11-20T14:19:48.040Z,3.00
2022-11-20T14:22:21.193Z,2.95
2022-11-20T14:24:50.287Z,3.28
2022-11-20T14:27:20.804Z,3.80
2022-11-20T14:29:50.763Z,1.40
2022-11-20T14:32:21.341Z,5.13
2022-11-20T14:34:50.990Z,2.40
2022-11-20T14:37:23.816Z,2.00
2022-11-20T14:39:55.079Z,4.05
2022-11-20T14:42:27.744Z,1.95
2022-11-20T14:45:00.275Z,2.17
2022-11-20T14:47:31.703Z,4.47
2022-11-20T14:50:04.529Z,4.85
2022-11-20T14:52:34.800Z,3.38
2022-11-20T14:55:02.451Z,4.72
2022-11-20T14:57:37.397Z,7.75
2022-11-20T15:00:14.081Z,2.10
2022-11-20T15:02:49.913Z,5.05
2022-11-20T15:05:19.688Z,3.83
2022-11-20T15:07:50.106Z,10.25
2022-11-20T15:10:27.066Z,8.20
2022-11-20T15:12:57.885Z,4.85
2022-11-20T15:15:34.622Z,7.18
2022-11-20T15:18:02.412Z,6.65
2022-11-20T15:20:32.769Z,8.25
2022-11-20T15:23:00.495Z,6.90
2022-11-20T15:25:29.234Z,5.90
2022-11-20T15:27:57.935Z,4.00
2022-11-20T15:30:25.981Z,5.47
2022-11-20T15:32:53.438Z,4.32
2022-11-20T15:35:20.881Z,6.85
2022-11-20T15:37:48.383Z,6.55
2022-11-20T15:40:15.986Z,2.92
2022-11-20T15:43:05.849Z,5.05
2022-11-20T15:45:59.644Z,4.95
2022-11-20T15:48:28.680Z,2.60
2022-11-20T15:51:11.270Z,3.38
2022-11-20T15:53:43.111Z,2.35
2022-11-20T15:56:13.800Z,2.67
2022-11-20T15:58:42.077Z,4.18
2022-11-20T16:01:14.598Z,7.25
2022-11-20T16:03:42.621Z,1.70
2022-11-20T16:06:10.091Z,2.58
2022-11-20T16:08:37.574Z,2.92
2022-11-20T16:11:05.385Z,3.40
2022-11-20T16:13:52.039Z,8.10
2022-11-20T16:16:25.026Z,3.17
2022-11-20T16:18:52.627Z,4.78
2022-11-20T16:21:20.035Z,4.85
2022-11-20T16:23:47.704Z,3.35
2022-11-20T16:26:18.354Z,3.50
2022-11-20T16:28:45.923Z,7.57
2022-11-20T16:31:18.473Z,7.80
2022-11-20T16:33:53.737Z,6.53
2022-11-20T16:36:23.315Z,7.32
2022-11-20T16:39:01.349Z,5.20
2022-11-20T16:41:31.440Z,6.28
2022-11-20T16:44:01.514Z,7.45
2022-11-20T16:46:31.690Z,5.57
2022-11-20T16:49:01.818Z,8.30
2022-11-20T16:51:31.314Z,7.70
2022-11-20T16:54:02.622Z,7.32
2022-11-20T16:56:30.119Z,10.73
2022-11-20T16:58:59.329Z,9.90
2022-11-20T17:01:28.949Z,10.75
2022-11-20T17:04:05.762Z,10.35
2022-11-20T17:06:35.828Z,11.35
2022-11-20T17:09:04.434Z,9.25
2022-11-20T17:11:33.515Z,11.05
2022-11-20T17:14:03.561Z,10.65
2022-11-20T17:16:31.379Z,10.50
2022-11-20T17:19:02.980Z,8.85
2022-11-20T17:21:32.467Z,8.63
2022-11-20T17:24:07.742Z,10.57
2022-11-20T17:26:36.361Z,8.13
2022-11-20T17:29:09.667Z,8.80
2022-11-20T17:31:40.936Z,12.95
2022-11-20T17:34:11.052Z,14.40
2022-11-20T17:36:45.701Z,12.30
2022-11-20T17:39:17.458Z,7.37
2022-11-20T17:41:45.587Z,12.48
2022-11-20T17:44:13.491Z,10.30
2022-11-20T17:46:41.351Z,28.33
2022-11-20T17:49:08.903Z,17.13
2022-11-20T17:51:36.644Z,12.02
2022-11-20T17:54:07.586Z,8.73
2022-11-20T17:56:55.006Z,6.55
2022-11-20T17:59:22.768Z,11.07
2022-11-20T18:01:50.420Z,10.27
2022-11-20T18:04:18.073Z,7.20
2022-11-20T18:06:45.660Z,7.38
2022-11-20T18:09:13.439Z,6.13
2022-11-20T18:11:42.264Z,5.47
2022-11-20T18:14:29.023Z,5.32
2022-11-20T18:17:02.461Z,6.13
2022-11-20T18:19:33.235Z,5.97
2022-11-20T18:22:04.100Z,5.82
2022-11-20T18:24:32.631Z,6.50
2022-11-20T18:27:00.445Z,5.82
2022-11-20T18:29:29.042Z,8.40
2022-11-20T18:31:56.930Z,6.80
2022-11-20T18:34:24.667Z,5.53
2022-11-20T18:36:52.885Z,7.60
2022-11-20T18:39:20.410Z,7.30
2022-11-20T18:42:06.600Z,8.85
2022-11-20T18:44:53.647Z,6.65
2022-11-20T18:47:25.299Z,4.88
2022-11-20T18:49:54.706Z,12.05
2022-11-20T18:52:28.029Z,10.00
2022-11-20T18:54:56.617Z,9.13
2022-11-20T18:57:26.323Z,11.68
2022-11-20T18:59:54.912Z,9.90
2022-11-20T19:02:23.113Z,13.88
2022-11-20T19:04:50.603Z,15.10
2022-11-20T19:07:18.541Z,14.13
2022-11-20T19:09:49.975Z,19.25
2022-11-20T19:12:18.179Z,16.42
2022-11-20T19:14:45.649Z,16.48
2022-11-20T19:17:13.626Z,15.75
2022-11-20T19:19:41.152Z,17.13
2022-11-20T19:22:09.395Z,22.63
2022-11-20T19:24:36.897Z,18.42
2022-11-20T19:27:04.522Z,16.75
2022-11-20T19:29:31.986Z,17.40
2022-11-20T19:31:59.572Z,18.00
2022-11-20T19:34:27.045Z,16.70
2022-11-20T19:36:54.589Z,16.42
2022-11-20T19:39:23.097Z,14.07
2022-11-20T19:41:50.837Z,12.88
2022-11-20T19:44:18.317Z,12.90
2022-11-20T19:46:45.840Z,9.23
2022-11-20T19:49:14.615Z,7.38
2022-11-20T19:51:47.686Z,8.00
2022-11-20T19:54:16.745Z,8.65
2022-11-20T19:56:45.595Z,8.63
2022-11-20T19:59:13.865Z,11.55
2022-11-20T20:01:41.355Z,11.50
2022-11-20T20:04:09.025Z,9.10
2022-11-20T20:06:39.949Z,13.63
2022-11-20T20:09:13.013Z,11.23
2022-11-20T20:11:40.745Z,9.25
2022-11-20T20:14:13.702Z,7.60
2022-11-20T20:16:42.221Z,10.90
2022-11-20T20:19:13.511Z,10.27
2022-11-20T20:21:41.496Z,11.43
2022-11-20T20:24:11.404Z,13.32
2022-11-20T20:26:39.021Z,15.02
2022-11-20T20:29:06.515Z,13.07
2022-11-20T20:31:34.903Z,20.83
2022-11-20T20:34:03.424Z,15.63
2022-11-20T20:36:31.378Z,15.82
2022-11-20T20:38:59.789Z,15.15
2022-11-20T20:41:27.494Z,15.77
2022-11-20T20:44:13.580Z,17.85
2022-11-20T20:46:41.802Z,16.25
2022-11-20T20:49:09.350Z,14.18
2022-11-20T20:51:37.097Z,18.13
2022-11-20T20:54:05.085Z,19.88
2022-11-20T20:56:32.922Z,17.25
2022-11-20T20:59:00.405Z,18.13
2022-11-20T21:01:28.934Z,26.48
2022-11-20T21:03:57.595Z,20.38
2022-11-20T21:06:25.942Z,17.63
2022-11-20T21:08:53.585Z,19.15
2022-11-20T21:11:21.121Z,14.38
2022-11-20T21:13:49.635Z,16.00
2022-11-20T21:16:19.091Z,21.95
2022-11-20T21:18:47.019Z,22.33
2022-11-20T21:21:34.946Z,25.58
2022-11-20T21:24:03.195Z,25.83
2022-11-20T21:26:30.576Z,25.65
2022-11-20T21:28:58.232Z,30.25
2022-11-20T21:31:26.830Z,31.33
2022-11-20T21:33:56.106Z,24.17
2022-11-20T21:36:25.877Z,26.67
2022-11-20T21:38:55.385Z,32.97
2022-11-20T21:41:23.979Z,21.50
2022-11-20T21:44:23.565Z,31.42
2022-11-20T21:46:44.274Z,31.38
2022-11-20T21:49:12.256Z,30.42
2022-11-20T21:51:40.146Z,34.42
2022-11-20T21:54:09.859Z,27.58
2022-11-20T21:56:37.297Z,24.10
2022-11-20T21:59:04.746Z,32.45
2022-11-20T22:01:32.417Z,32.63
2022-11-20T22:04:02.464Z,25.83
2022-11-20T22:06:35.370Z,27.50
2022-11-20T22:09:03.757Z,20.73
2022-11-20T22:11:31.324Z,22.27
2022-11-20T22:14:17.620Z,24.00
2022-11-20T22:19:15.338Z,31.90
2022-11-20T22:21:42.920Z,31.65
2022-11-20T22:24:15.459Z,24.55
2022-11-20T22:26:43.968Z,19.90
2022-11-20T22:29:21.347Z,28.05
2022-11-20T22:31:52.045Z,29.60
2022-11-20T22:34:19.853Z,25.75
2022-11-20T22:36:47.336Z,24.77
2022-11-20T22:39:14.873Z,27.23
2022-11-20T22:41:42.338Z,21.02
2022-11-20T22:44:14.391Z,27.20
2022-11-20T22:46:41.848Z,22.23
2022-11-20T22:49:09.625Z,27.70
2022-11-20T22:51:39.478Z,25.42
2022-11-20T22:54:07.730Z,24.70
2022-11-20T22:56:35.269Z,21.35
2022-11-20T22:59:03.182Z,17.50
2022-11-20T23:01:33.943Z,18.80
2022-11-20T23:04:04.576Z,17.45
2022-11-20T23:06:35.428Z,19.25
2022-11-20T23:09:05.089Z,16.63
2022-11-20T23:11:33.392Z,15.93
2022-11-20T23:14:15.129Z,17.55
2022-11-20T23:16:43.327Z,20.33
2022-11-20T23:19:13.171Z,17.30
2022-11-20T23:21:42.100Z,14.95
2022-11-20T23:24:10.371Z,15.43
2022-11-20T23:26:40.797Z,21.48
2022-11-20T23:29:08.669Z,17.45
2022-11-20T23:31:36.582Z,17.63
2022-11-20T23:34:04.601Z,21.15
2022-11-20T23:36:32.570Z,11.43
2022-11-20T23:39:00.100Z,15.07
2022-11-20T23:41:27.596Z,18.00
2022-11-20T23:43:54.995Z,18.20
2022-11-20T23:46:22.555Z,16.30
2022-11-20T23:48:49.997Z,15.80
2022-11-20T23:51:18.082Z,13.25
2022-11-20T23:53:45.782Z,16.35
2022-11-20T23:56:14.730Z,15.10
2022-11-20T23:58:43.007Z,15.73
